Time;durP1;ratioP1;P1;durP2;ratioP2;P2;SDS_P1;SDS_P2;PMS_P1;PMS_P2;Temp;Humidity;BMP_temperature;BMP_pressure;BME280_temperature;BME280_humidity;BME280_pressure;Samples;Min_cycle;Max_cycle;Signal;HPM_P1;HPM_P2
2021/06/30 00:01:08;;;;;;;4.20;2.58;;;;;;;;;;4926791;28;20068;-79
2021/06/30 00:03:34;;;;;;;7.35;2.80;;;;;;;;;;4929448;29;20060;-80
2021/06/30 00:06:01;;;;;;;3.97;2.60;;;;;;;;;;4925481;28;20079;-79
2021/06/30 00:08:27;;;;;;;9.25;2.97;;;;;;;;;;4938030;28;20074;-79
2021/06/30 00:10:54;;;;;;;4.82;2.85;;;;;;;;;;4930210;28;20075;-79
2021/06/30 00:13:26;;;;;;;5.78;2.70;;;;;;;;;;4927178;29;20051;-80
2021/06/30 00:15:53;;;;;;;6.13;3.00;;;;;;;;;;4921131;29;20623;-79
2021/06/30 00:18:25;;;;;;;6.00;2.90;;;;;;;;;;4929823;28;20066;-80
2021/06/30 00:20:52;;;;;;;5.55;3.03;;;;;;;;;;4920854;29;20578;-80
2021/06/30 00:23:19;;;;;;;5.07;3.42;;;;;;;;;;4935683;28;20043;-79
2021/06/30 00:25:45;;;;;;;4.70;2.78;;;;;;;;;;4943876;28;20489;-79
2021/06/30 00:28:15;;;;;;;6.00;2.97;;;;;;;;;;4928503;28;20055;-80
2021/06/30 00:30:44;;;;;;;4.80;2.95;;;;;;;;;;4927821;28;20071;-79
2021/06/30 00:33:11;;;;;;;4.75;2.47;;;;;;;;;;4931448;28;20082;-80
2021/06/30 00:35:37;;;;;;;4.43;2.90;;;;;;;;;;4929783;29;20106;-78
2021/06/30 00:38:06;;;;;;;8.65;3.30;;;;;;;;;;4922329;28;20054;-79
2021/06/30 00:40:33;;;;;;;4.47;2.78;;;;;;;;;;4943172;28;20048;-79
2021/06/30 00:42:59;;;;;;;5.82;2.75;;;;;;;;;;4932223;28;20060;-80
2021/06/30 00:45:28;;;;;;;5.07;2.80;;;;;;;;;;4943093;28;20075;-79
2021/06/30 00:47:58;;;;;;;4.80;2.85;;;;;;;;;;4930441;28;21975;-79
2021/06/30 00:50:24;;;;;;;7.78;3.00;;;;;;;;;;4928961;28;20099;-79
2021/06/30 00:52:51;;;;;;;3.75;2.70;;;;;;;;;;4927437;29;22443;-78
2021/06/30 00:55:22;;;;;;;5.18;3.25;;;;;;;;;;4927582;28;20671;-79
2021/06/30 00:57:52;;;;;;;4.00;3.17;;;;;;;;;;4929445;28;20518;-79
2021/06/30 01:00:18;;;;;;;4.50;3.20;;;;;;;;;;4931711;29;20538;-80
2021/06/30 01:02:44;;;;;;;5.88;3.28;;;;;;;;;;4923639;28;20063;-79
2021/06/30 01:05:15;;;;;;;5.45;3.58;;;;;;;;;;4928613;28;20044;-79
2021/06/30 01:07:41;;;;;;;5.47;3.25;;;;;;;;;;4925455;29;20063;-78
2021/06/30 01:10:10;;;;;;;4.82;3.35;;;;;;;;;;4930521;28;20067;-80
2021/06/30 01:12:36;;;;;;;5.15;3.38;;;;;;;;;;4929230;28;20188;-78
2021/06/30 01:15:10;;;;;;;6.47;3.75;;;;;;;;;;4929616;28;20036;-80
2021/06/30 01:17:39;;;;;;;6.00;3.42;;;;;;;;;;4928295;28;20507;-79
2021/06/30 01:20:07;;;;;;;6.88;3.70;;;;;;;;;;4929126;28;20036;-80
2021/06/30 01:22:33;;;;;;;6.97;4.00;;;;;;;;;;4929991;28;20492;-79
2021/06/30 01:25:00;;;;;;;6.10;4.80;;;;;;;;;;4930981;28;20072;-79
2021/06/30 01:27:31;;;;;;;5.72;3.55;;;;;;;;;;4924057;28;20044;-81
2021/06/30 01:29:57;;;;;;;;;;;;;;;;;;4932112;28;20035;-79
2021/06/30 01:32:26;;;;;;;5.13;3.70;;;;;;;;;;4939033;28;20031;-78
2021/06/30 01:34:52;;;;;;;6.55;3.90;;;;;;;;;;4928989;28;20055;-79
2021/06/30 01:37:19;;;;;;;6.13;3.72;;;;;;;;;;4926684;29;20043;-79
2021/06/30 01:39:45;;;;;;;5.28;3.67;;;;;;;;;;4926081;28;20103;-79
2021/06/30 01:42:12;;;;;;;6.63;3.80;;;;;;;;;;4920529;29;20066;-78
2021/06/30 01:44:38;;;;;;;4.78;3.20;;;;;;;;;;4929271;28;20152;-79
2021/06/30 01:47:04;;;;;;;5.40;3.30;;;;;;;;;;4929358;29;20067;-79
2021/06/30 01:49:34;;;;;;;5.60;3.10;;;;;;;;;;4927807;28;20790;-78
2021/06/30 01:52:00;;;;;;;4.53;3.10;;;;;;;;;;4929805;28;21059;-79
2021/06/30 01:54:26;;;;;;;4.95;2.90;;;;;;;;;;4921679;28;20064;-79
2021/06/30 01:56:53;;;;;;;3.55;2.47;;;;;;;;;;4928246;28;20067;-78
2021/06/30 01:59:19;;;;;;;3.80;2.60;;;;;;;;;;4943734;29;20067;-79
2021/06/30 02:01:46;;;;;;;3.67;2.60;;;;;;;;;;4944141;28;21856;-80
2021/06/30 02:04:12;;;;;;;4.25;3.13;;;;;;;;;;4929713;28;20048;-79
2021/06/30 02:06:43;;;;;;;4.88;2.70;;;;;;;;;;4928028;28;20095;-79
2021/06/30 02:09:11;;;;;;;5.07;2.72;;;;;;;;;;4929364;28;20095;-79
2021/06/30 02:11:38;;;;;;;3.88;2.90;;;;;;;;;;4927603;28;20098;-79
2021/06/30 02:14:05;;;;;;;3.33;2.58;;;;;;;;;;4934355;28;20064;-79
2021/06/30 02:16:31;;;;;;;4.40;2.70;;;;;;;;;;4930090;28;20476;-79
2021/06/30 02:19:04;;;;;;;4.80;2.65;;;;;;;;;;4918812;29;20051;-79
2021/06/30 02:21:34;;;;;;;4.15;2.90;;;;;;;;;;4915911;28;20114;-80
2021/06/30 02:24:00;;;;;;;3.38;2.70;;;;;;;;;;4931920;29;20080;-80
2021/06/30 02:26:28;;;;;;;3.75;2.50;;;;;;;;;;4933623;29;20036;-79
2021/06/30 02:28:55;;;;;;;5.15;2.60;;;;;;;;;;4933957;28;20086;-78
2021/06/30 02:31:21;;;;;;;4.90;2.50;;;;;;;;;;4933450;28;20507;-78
2021/06/30 02:33:48;;;;;;;3.85;2.88;;;;;;;;;;4932291;28;20067;-79
2021/06/30 02:36:17;;;;;;;4.50;2.60;;;;;;;;;;4928840;28;20423;-78
2021/06/30 02:38:43;;;;;;;3.75;2.38;;;;;;;;;;4940601;28;20550;-78
2021/06/30 02:41:10;;;;;;;3.25;2.33;;;;;;;;;;4934159;29;20075;-78
2021/06/30 02:43:36;;;;;;;3.53;2.20;;;;;;;;;;4933484;28;20064;-78
2021/06/30 02:46:03;;;;;;;5.15;2.42;;;;;;;;;;4932561;28;20063;-78
2021/06/30 02:48:29;;;;;;;3.65;2.45;;;;;;;;;;4923999;29;20059;-79
2021/06/30 02:50:56;;;;;;;3.65;2.22;;;;;;;;;;4932167;28;20070;-79
2021/06/30 02:53:22;;;;;;;4.35;2.58;;;;;;;;;;4933743;28;20047;-80
2021/06/30 02:55:49;;;;;;;3.85;2.40;;;;;;;;;;4931293;29;20448;-79
2021/06/30 02:58:15;;;;;;;4.30;2.40;;;;;;;;;;4931324;28;20086;-78
2021/06/30 03:00:44;;;;;;;4.07;2.58;;;;;;;;;;4927836;28;20520;-79
2021/06/30 03:03:11;;;;;;;4.03;2.60;;;;;;;;;;4926763;28;20119;-79
2021/06/30 03:05:37;;;;;;;4.15;2.83;;;;;;;;;;4931011;28;20067;-78
2021/06/30 03:08:04;;;;;;;3.88;2.28;;;;;;;;;;4933719;28;20055;-79
2021/06/30 03:10:33;;;;;;;5.40;2.75;;;;;;;;;;4931381;28;20896;-79
2021/06/30 03:13:00;;;;;;;4.95;2.58;;;;;;;;;;4929575;28;20127;-80
2021/06/30 03:15:26;;;;;;;3.22;2.60;;;;;;;;;;4925341;28;20079;-79
2021/06/30 03:17:55;;;;;;;3.55;2.63;;;;;;;;;;4946362;28;22386;-79
2021/06/30 03:20:22;;;;;;;5.40;2.50;;;;;;;;;;4929651;29;20064;-80
2021/06/30 03:22:51;;;;;;;3.35;2.40;;;;;;;;;;4930577;29;20039;-79
2021/06/30 03:25:17;;;;;;;3.35;2.63;;;;;;;;;;4930093;29;20084;-79
2021/06/30 03:27:44;;;;;;;5.28;3.08;;;;;;;;;;4931806;28;20066;-79
2021/06/30 03:30:12;;;;;;;4.57;3.20;;;;;;;;;;4927316;28;20060;-79
2021/06/30 03:32:38;;;;;;;4.32;3.17;;;;;;;;;;4932428;28;20051;-78
2021/06/30 03:35:08;;;;;;;4.38;3.50;;;;;;;;;;4932963;28;20048;-79
2021/06/30 03:37:35;;;;;;;5.00;3.60;;;;;;;;;;4931518;28;20071;-79
2021/06/30 03:40:01;;;;;;;4.07;2.72;;;;;;;;;;4934277;28;20083;-78
2021/06/30 03:42:31;;;;;;;4.75;3.17;;;;;;;;;;4930145;28;20079;-79
2021/06/30 03:45:00;;;;;;;3.67;3.20;;;;;;;;;;4933096;28;20110;-79
2021/06/30 03:47:27;;;;;;;4.30;3.17;;;;;;;;;;4921134;28;20071;-79
2021/06/30 03:49:53;;;;;;;3.97;3.38;;;;;;;;;;4928481;28;20823;-79
2021/06/30 03:52:20;;;;;;;4.65;3.35;;;;;;;;;;4930221;28;20040;-80
2021/06/30 03:54:49;;;;;;;4.18;3.10;;;;;;;;;;4920276;28;20213;-79
2021/06/30 03:57:16;;;;;;;4.15;3.17;;;;;;;;;;4930933;28;20122;-79
2021/06/30 03:59:45;;;;;;;5.10;3.08;;;;;;;;;;4930250;28;20522;-79
2021/06/30 04:02:12;;;;;;;3.58;3.00;;;;;;;;;;4928362;29;20516;-78
2021/06/30 04:04:38;;;;;;;6.40;4.97;;;;;;;;;;4929003;29;20056;-79
2021/06/30 04:07:05;;;;;;;6.28;3.15;;;;;;;;;;4931047;28;20051;-79
2021/06/30 04:09:31;;;;;;;4.30;2.92;;;;;;;;;;4929941;28;20059;-79
2021/06/30 04:12:00;;;;;;;4.72;2.78;;;;;;;;;;4932069;28;20040;-79
2021/06/30 04:14:30;;;;;;;5.38;3.30;;;;;;;;;;4929563;28;20555;-79
2021/06/30 04:16:57;;;;;;;5.20;3.60;;;;;;;;;;4930418;29;20119;-80
2021/06/30 04:19:23;;;;;;;4.88;3.47;;;;;;;;;;4932853;28;20063;-79
2021/06/30 04:21:49;;;;;;;4.80;3.38;;;;;;;;;;4924379;28;20037;-80
2021/06/30 04:24:16;;;;;;;4.95;3.28;;;;;;;;;;4930764;29;20493;-80
2021/06/30 04:26:43;;;;;;;5.10;3.22;;;;;;;;;;4944418;28;20039;-79
2021/06/30 04:29:09;;;;;;;3.60;3.05;;;;;;;;;;4936911;28;20066;-81
2021/06/30 04:31:36;;;;;;;4.25;3.30;;;;;;;;;;4918161;29;20063;-80
2021/06/30 04:34:02;;;;;;;5.47;3.47;;;;;;;;;;4930418;28;20062;-78
2021/06/30 04:36:29;;;;;;;5.65;3.30;;;;;;;;;;4929484;28;20071;-79
2021/06/30 04:38:55;;;;;;;5.78;3.53;;;;;;;;;;4931428;28;20063;-79
2021/06/30 04:41:21;;;;;;;5.88;3.40;;;;;;;;;;4929397;29;20070;-79
2021/06/30 04:43:48;;;;;;;5.38;2.97;;;;;;;;;;4929431;28;20059;-79
2021/06/30 04:46:17;;;;;;;4.82;3.25;;;;;;;;;;4925665;28;20083;-79
2021/06/30 04:48:47;;;;;;;4.18;3.50;;;;;;;;;;4927190;29;20055;-78
2021/06/30 04:51:16;;;;;;;4.45;3.50;;;;;;;;;;4929752;29;20064;-79
2021/06/30 04:53:46;;;;;;;4.00;3.05;;;;;;;;;;4928205;29;20523;-80
2021/06/30 04:56:15;;;;;;;4.65;3.58;;;;;;;;;;4929855;28;20511;-78
2021/06/30 04:58:41;;;;;;;4.28;3.15;;;;;;;;;;4927164;28;20067;-79
2021/06/30 05:01:08;;;;;;;3.83;3.05;;;;;;;;;;4929153;28;20143;-79
2021/06/30 05:03:34;;;;;;;4.90;3.50;;;;;;;;;;4930590;28;20063;-78
2021/06/30 05:06:03;;;;;;;4.10;2.92;;;;;;;;;;4929101;28;20047;-79
2021/06/30 05:08:30;;;;;;;4.43;3.70;;;;;;;;;;4926547;29;20814;-79
2021/06/30 05:10:59;;;;;;;6.55;3.38;;;;;;;;;;4929702;28;20047;-80
2021/06/30 05:13:25;;;;;;;5.03;3.88;;;;;;;;;;4927527;29;20076;-79
2021/06/30 05:15:52;;;;;;;5.47;3.42;;;;;;;;;;4928010;28;20063;-80
2021/06/30 05:18:18;;;;;;;5.20;3.75;;;;;;;;;;4930121;28;20071;-79
2021/06/30 05:20:45;;;;;;;5.03;3.90;;;;;;;;;;4926185;29;20036;-80
2021/06/30 05:23:11;;;;;;;5.90;3.60;;;;;;;;;;4929413;28;20075;-81
2021/06/30 05:25:41;;;;;;;4.70;3.60;;;;;;;;;;4928107;28;20070;-79
2021/06/30 05:28:07;;;;;;;3.92;3.17;;;;;;;;;;4928717;28;20130;-79
2021/06/30 05:30:33;;;;;;;3.60;2.78;;;;;;;;;;4920453;28;20503;-80
2021/06/30 05:33:00;;;;;;;3.50;2.40;;;;;;;;;;4929572;29;20070;-79
2021/06/30 05:35:29;;;;;;;3.63;2.60;;;;;;;;;;4926093;28;20058;-78
2021/06/30 05:37:59;;;;;;;4.15;3.15;;;;;;;;;;4936805;28;20561;-78
2021/06/30 05:40:25;;;;;;;4.82;2.95;;;;;;;;;;4930840;29;20436;-79
2021/06/30 05:42:55;;;;;;;3.60;2.53;;;;;;;;;;4919496;29;20040;-79
2021/06/30 05:45:22;;;;;;;3.13;2.60;;;;;;;;;;4929613;29;20122;-79
2021/06/30 05:47:48;;;;;;;3.55;2.80;;;;;;;;;;4930413;29;20063;-78
2021/06/30 05:50:15;;;;;;;3.15;2.58;;;;;;;;;;4930139;29;20062;-78
2021/06/30 05:52:42;;;;;;;4.47;2.83;;;;;;;;;;4929903;28;20031;-79
2021/06/30 05:55:09;;;;;;;3.58;3.00;;;;;;;;;;4922434;29;20068;-79
2021/06/30 05:57:36;;;;;;;4.80;2.83;;;;;;;;;;4930417;28;20142;-79
2021/06/30 06:00:10;;;;;;;4.07;3.03;;;;;;;;;;4931635;28;20054;-80
2021/06/30 06:02:36;;;;;;;3.58;2.85;;;;;;;;;;4932824;28;20067;-79
2021/06/30 06:05:03;;;;;;;4.10;2.90;;;;;;;;;;4935581;29;20066;-79
2021/06/30 06:07:29;;;;;;;3.53;2.72;;;;;;;;;;4931936;29;20086;-78
2021/06/30 06:09:56;;;;;;;3.92;2.58;;;;;;;;;;4933166;28;20169;-79
2021/06/30 06:12:22;;;;;;;2.92;2.40;;;;;;;;;;4931260;28;20060;-78
2021/06/30 06:14:55;;;;;;;3.05;2.55;;;;;;;;;;4931166;28;20099;-78
2021/06/30 06:17:21;;;;;;;3.47;2.78;;;;;;;;;;4931669;28;20100;-77
2021/06/30 06:19:48;;;;;;;3.30;2.60;;;;;;;;;;4933080;28;20075;-77
2021/06/30 06:22:14;;;;;;;4.68;3.33;;;;;;;;;;4932178;29;20112;-77
2021/06/30 06:24:41;;;;;;;3.05;2.60;;;;;;;;;;4932093;29;20179;-78
2021/06/30 06:27:07;;;;;;;3.42;2.55;;;;;;;;;;4933613;28;20066;-76
2021/06/30 06:29:37;;;;;;;3.88;3.20;;;;;;;;;;4933514;28;20071;-76
2021/06/30 06:32:03;;;;;;;4.60;2.75;;;;;;;;;;4923614;29;20055;-76
2021/06/30 06:34:30;;;;;;;3.05;2.50;;;;;;;;;;4932850;28;20494;-74
2021/06/30 06:36:59;;;;;;;4.22;3.05;;;;;;;;;;4928259;29;20083;-75
2021/06/30 06:39:27;;;;;;;3.53;2.50;;;;;;;;;;4946255;28;20111;-76
2021/06/30 06:41:53;;;;;;;3.53;2.65;;;;;;;;;;4931773;28;21238;-75
2021/06/30 06:44:20;;;;;;;3.78;2.80;;;;;;;;;;4932605;29;20074;-76
2021/06/30 06:46:47;;;;;;;2.67;2.15;;;;;;;;;;4934577;28;20055;-77
2021/06/30 06:49:14;;;;;;;3.33;2.47;;;;;;;;;;4946158;28;20051;-78
2021/06/30 06:51:40;;;;;;;3.90;2.80;;;;;;;;;;4930594;28;20099;-75
2021/06/30 06:54:10;;;;;;;3.40;2.70;;;;;;;;;;4929297;29;20620;-74
2021/06/30 06:56:36;;;;;;;3.50;2.80;;;;;;;;;;4924893;28;20072;-75
2021/06/30 06:59:06;;;;;;;5.28;3.00;;;;;;;;;;4931542;29;20063;-82
2021/06/30 07:01:32;;;;;;;5.15;2.78;;;;;;;;;;4933053;28;20103;-81
2021/06/30 07:04:01;;;;;;;4.40;2.90;;;;;;;;;;4945564;28;20119;-79
2021/06/30 07:06:28;;;;;;;6.25;3.33;;;;;;;;;;4929603;28;20063;-81
2021/06/30 07:08:54;;;;;;;7.22;3.50;;;;;;;;;;4929535;29;20067;-79
2021/06/30 07:11:21;;;;;;;6.18;3.78;;;;;;;;;;4930164;28;20111;-80
2021/06/30 07:13:51;;;;;;;5.93;3.63;;;;;;;;;;4949908;28;20092;-80
2021/06/30 07:16:17;;;;;;;6.55;3.40;;;;;;;;;;4932214;28;20040;-79
2021/06/30 07:18:44;;;;;;;6.22;3.65;;;;;;;;;;4927497;28;20075;-79
2021/06/30 07:21:11;;;;;;;4.95;3.67;;;;;;;;;;4930849;28;20518;-81
2021/06/30 07:23:37;;;;;;;6.72;3.83;;;;;;;;;;4929283;28;20134;-79
2021/06/30 07:26:04;;;;;;;6.53;3.80;;;;;;;;;;4931565;28;20056;-80
2021/06/30 07:28:30;;;;;;;6.45;3.30;;;;;;;;;;4927443;28;20048;-80
2021/06/30 07:31:00;;;;;;;5.88;3.92;;;;;;;;;;4929827;28;20089;-80
2021/06/30 07:33:26;;;;;;;6.35;3.92;;;;;;;;;;4942872;28;20119;-79
2021/06/30 07:35:53;;;;;;;5.97;2.95;;;;;;;;;;4930120;28;22168;-81
2021/06/30 07:38:19;;;;;;;6.05;3.72;;;;;;;;;;4930251;28;20079;-80
2021/06/30 07:40:45;;;;;;;6.80;3.67;;;;;;;;;;4942800;28;20447;-80
2021/06/30 07:43:12;;;;;;;7.15;3.53;;;;;;;;;;4928294;29;20114;-80
2021/06/30 07:45:41;;;;;;;5.65;3.92;;;;;;;;;;4930981;28;20039;-79
2021/06/30 07:48:08;;;;;;;5.55;3.45;;;;;;;;;;4917767;28;20460;-80
2021/06/30 07:50:34;;;;;;;5.70;3.58;;;;;;;;;;4941038;28;20039;-84
2021/06/30 07:53:01;;;;;;;5.47;4.00;;;;;;;;;;4932452;28;20063;-83
2021/06/30 07:55:27;;;;;;;8.27;3.83;;;;;;;;;;4925163;28;20066;-83
2021/06/30 07:57:54;;;;;;;5.78;3.38;;;;;;;;;;4927321;29;20484;-83
2021/06/30 08:00:20;;;;;;;5.85;3.88;;;;;;;;;;4929690;28;20503;-83
2021/06/30 08:02:46;;;;;;;6.22;3.72;;;;;;;;;;4930563;28;20074;-84
2021/06/30 08:05:13;;;;;;;4.63;3.45;;;;;;;;;;4929185;28;20059;-83
2021/06/30 08:07:39;;;;;;;4.70;3.20;;;;;;;;;;4929145;28;20027;-83
2021/06/30 08:10:08;;;;;;;6.45;3.50;;;;;;;;;;4930324;28;20068;-83
2021/06/30 08:12:34;;;;;;;3.90;3.08;;;;;;;;;;4932092;28;20071;-83
2021/06/30 08:15:01;;;;;;;5.97;3.53;;;;;;;;;;4929826;29;20063;-85
2021/06/30 08:17:30;;;;;;;5.50;3.20;;;;;;;;;;4945969;29;20538;-81
2021/06/30 08:19:56;;;;;;;5.43;4.10;;;;;;;;;;4931455;28;20533;-83
2021/06/30 08:22:23;;;;;;;4.38;3.22;;;;;;;;;;4931008;28;20063;-84
2021/06/30 08:24:49;;;;;;;5.07;3.10;;;;;;;;;;4922226;28;20076;-86
2021/06/30 08:27:19;;;;;;;8.07;4.50;;;;;;;;;;4932044;28;20444;-83
2021/06/30 08:29:45;;;;;;;7.50;5.65;;;;;;;;;;4934647;28;20086;-85
2021/06/30 08:32:12;;;;;;;9.40;7.35;;;;;;;;;;4932656;29;20122;-81
2021/06/30 08:34:38;;;;;;;9.60;6.93;;;;;;;;;;4938875;28;20399;-82
2021/06/30 08:37:08;;;;;;;8.13;6.38;;;;;;;;;;4921545;29;20086;-82
2021/06/30 08:39:38;;;;;;;10.23;7.35;;;;;;;;;;4927255;28;20055;-83
2021/06/30 08:42:15;;;;;;;8.50;6.45;;;;;;;;;;4930099;28;20074;-83
2021/06/30 08:44:45;;;;;;;7.40;6.00;;;;;;;;;;4930495;29;20050;-83
2021/06/30 08:47:12;;;;;;;6.80;6.05;;;;;;;;;;4931565;28;20642;-79
2021/06/30 08:49:42;;;;;;;6.32;5.50;;;;;;;;;;4929544;28;20115;-80
2021/06/30 08:52:12;;;;;;;7.80;5.53;;;;;;;;;;4928967;29;20107;-83
2021/06/30 08:54:41;;;;;;;5.60;4.93;;;;;;;;;;4928189;28;20496;-79
2021/06/30 08:57:08;;;;;;;8.82;5.90;;;;;;;;;;4928272;28;20059;-80
2021/06/30 08:59:35;;;;;;;9.82;5.15;;;;;;;;;;4913689;28;20075;-81
2021/06/30 09:02:01;;;;;;;6.75;5.80;;;;;;;;;;4899264;28;20126;-82
2021/06/30 09:04:32;;;;;;;7.53;5.47;;;;;;;;;;4917019;28;20501;-80
2021/06/30 09:06:59;;;;;;;7.13;5.30;;;;;;;;;;4923358;29;21407;-82
2021/06/30 09:09:26;;;;;;;8.32;5.47;;;;;;;;;;4926577;29;20090;-80
2021/06/30 09:12:00;;;;;;;7.32;4.90;;;;;;;;;;4927657;28;20064;-80
2021/06/30 09:14:37;;;;;;;8.63;5.70;;;;;;;;;;4928500;28;20114;-81
2021/06/30 09:19:46;;;;;;;6.40;5.57;;;;;;;;;;4928881;28;20078;-81
2021/06/30 09:22:12;;;;;;;7.40;5.22;;;;;;;;;;4928651;28;20036;-83
2021/06/30 09:24:39;;;;;;;6.60;5.35;;;;;;;;;;4929082;28;20523;-79
2021/06/30 09:27:06;;;;;;;9.32;5.85;;;;;;;;;;4929927;28;20036;-81
2021/06/30 09:29:33;;;;;;;9.32;6.10;;;;;;;;;;4928781;28;20048;-81
2021/06/30 09:32:08;;;;;;;7.88;5.60;;;;;;;;;;4926774;29;20476;-80
2021/06/30 09:34:34;;;;;;;10.95;6.93;;;;;;;;;;4928010;28;20055;-80
2021/06/30 09:37:02;;;;;;;13.02;9.57;;;;;;;;;;4935227;28;20059;-81
2021/06/30 09:39:35;;;;;;;13.10;10.15;;;;;;;;;;4933273;28;20115;-80
2021/06/30 09:42:12;;;;;;;12.23;9.05;;;;;;;;;;4935499;28;20063;-81
2021/06/30 09:44:40;;;;;;;8.48;7.55;;;;;;;;;;4935175;28;20114;-80
2021/06/30 09:47:07;;;;;;;9.93;8.00;;;;;;;;;;4936365;28;20063;-79
2021/06/30 09:49:36;;;;;;;8.55;6.90;;;;;;;;;;4947400;28;20111;-81
2021/06/30 09:52:03;;;;;;;10.23;7.53;;;;;;;;;;4934811;28;20496;-79
2021/06/30 09:54:31;;;;;;;9.57;6.57;;;;;;;;;;4935488;28;20054;-72
2021/06/30 09:57:00;;;;;;;9.05;6.63;;;;;;;;;;4928589;28;20115;-73
2021/06/30 09:59:28;;;;;;;7.55;5.95;;;;;;;;;;4932784;29;20340;-74
2021/06/30 10:02:16;;;;;;;7.40;6.10;;;;;;;;;;4925834;28;21352;-74
2021/06/30 10:04:44;;;;;;;8.70;5.95;;;;;;;;;;4932261;28;20039;-73
2021/06/30 10:07:11;;;;;;;6.80;6.00;;;;;;;;;;4933559;28;20055;-73
2021/06/30 10:09:39;;;;;;;6.40;5.80;;;;;;;;;;4935209;28;20039;-75
2021/06/30 10:12:07;;;;;;;7.57;6.07;;;;;;;;;;4938617;29;20134;-75
2021/06/30 10:14:34;;;;;;;8.90;6.63;;;;;;;;;;4933448;28;20993;-79
2021/06/30 10:17:01;;;;;;;6.88;6.05;;;;;;;;;;4931525;28;20062;-79
2021/06/30 10:19:28;;;;;;;11.73;8.00;;;;;;;;;;4932662;28;20071;-75
2021/06/30 10:21:54;;;;;;;7.68;6.30;;;;;;;;;;4933660;28;20051;-73
2021/06/30 10:24:21;;;;;;;8.60;6.30;;;;;;;;;;4932219;28;20069;-76
2021/06/30 10:26:51;;;;;;;7.47;6.22;;;;;;;;;;4940965;28;22219;-78
2021/06/30 10:29:18;;;;;;;6.88;5.75;;;;;;;;;;4936738;28;20052;-77
2021/06/30 10:31:49;;;;;;;9.60;6.13;;;;;;;;;;4930779;28;20064;-76
2021/06/30 10:34:15;;;;;;;8.32;6.18;;;;;;;;;;4935644;29;20039;-77
2021/06/30 10:36:50;;;;;;;8.95;6.55;;;;;;;;;;4931006;28;20044;-78
2021/06/30 10:39:38;;;;;;;10.25;7.13;;;;;;;;;;4936754;28;20058;-78
2021/06/30 10:42:18;;;;;;;11.57;8.18;;;;;;;;;;4923092;29;20107;-78
2021/06/30 10:44:46;;;;;;;13.00;9.85;;;;;;;;;;4931967;28;20106;-78
2021/06/30 10:47:28;;;;;;;13.75;11.15;;;;;;;;;;4930998;28;20059;-76
2021/06/30 10:50:15;;;;;;;13.25;11.25;;;;;;;;;;4933650;28;20644;-74
2021/06/30 10:52:41;;;;;;;11.77;9.35;;;;;;;;;;4910828;28;20099;-76
2021/06/30 10:55:27;;;;;;;11.40;8.00;;;;;;;;;;4932526;28;20059;-75
2021/06/30 10:58:15;;;;;;;11.15;7.60;;;;;;;;;;4930415;28;20307;-75
2021/06/30 11:00:41;;;;;;;11.43;6.75;;;;;;;;;;4936222;28;20086;-77
2021/06/30 11:03:23;;;;;;;7.47;6.38;;;;;;;;;;4929795;29;20836;-77
2021/06/30 11:05:50;;;;;;;7.95;6.20;;;;;;;;;;4932447;28;20821;-76
2021/06/30 11:08:52;;;;;;;7.57;5.75;;;;;;;;;;4931722;29;20740;-76
2021/06/30 11:11:34;;;;;;;5.80;5.10;;;;;;;;;;4852511;29;20306;-77
2021/06/30 11:14:06;;;;;;;6.60;5.10;;;;;;;;;;4922693;29;22236;-77
2021/06/30 11:16:39;;;;;;;6.90;5.10;;;;;;;;;;4929639;29;20040;-75
2021/06/30 11:19:09;;;;;;;7.85;5.20;;;;;;;;;;4936512;28;20056;-76
2021/06/30 11:21:51;;;;;;;5.82;5.15;;;;;;;;;;4928302;28;20048;-76
2021/06/30 11:24:36;;;;;;;9.88;7.43;;;;;;;;;;4932190;29;20060;-75
2021/06/30 11:27:02;;;;;;;9.57;7.35;;;;;;;;;;4930548;28;20440;-76
2021/06/30 11:29:47;;;;;;;7.95;5.90;;;;;;;;;;4929362;29;20060;-78
2021/06/30 11:32:38;;;;;;;6.13;4.88;;;;;;;;;;4931275;28;20071;-76
2021/06/30 11:35:10;;;;;;;9.77;5.22;;;;;;;;;;4927934;28;21236;-77
2021/06/30 11:37:37;;;;;;;7.05;4.82;;;;;;;;;;4925936;28;20747;-76
2021/06/30 11:40:14;;;;;;;6.22;4.72;;;;;;;;;;4929332;28;20067;-75
2021/06/30 11:42:44;;;;;;;6.13;4.28;;;;;;;;;;4929885;28;20091;-76
2021/06/30 11:45:23;;;;;;;6.32;4.65;;;;;;;;;;4933892;28;20500;-76
2021/06/30 11:47:53;;;;;;;7.35;5.00;;;;;;;;;;4929814;28;20118;-76
2021/06/30 11:50:24;;;;;;;7.20;4.87;;;;;;;;;;4931532;28;20500;-76
2021/06/30 11:52:50;;;;;;;7.68;5.47;;;;;;;;;;4928243;28;20051;-76
2021/06/30 11:55:17;;;;;;;7.80;5.45;;;;;;;;;;4927717;29;20068;-76
2021/06/30 11:58:01;;;;;;;8.73;5.13;;;;;;;;;;4928939;28;20082;-75
2021/06/30 12:00:31;;;;;;;6.88;5.25;;;;;;;;;;4938903;28;20449;-76
2021/06/30 12:03:06;;;;;;;7.57;5.30;;;;;;;;;;4930929;28;20547;-77
2021/06/30 12:05:38;;;;;;;8.35;5.25;;;;;;;;;;4930071;28;20071;-76
2021/06/30 12:08:07;;;;;;;7.18;5.00;;;;;;;;;;4935589;28;20118;-76
2021/06/30 12:10:34;;;;;;;6.60;5.10;;;;;;;;;;4933766;28;20079;-78
2021/06/30 12:13:00;;;;;;;7.85;5.28;;;;;;;;;;4931165;28;20928;-77
2021/06/30 12:15:27;;;;;;;8.45;5.20;;;;;;;;;;4926869;28;20070;-75
2021/06/30 12:17:58;;;;;;;8.88;5.40;;;;;;;;;;4933145;28;21939;-77
2021/06/30 12:20:28;;;;;;;7.20;4.80;;;;;;;;;;4928121;28;20117;-76
2021/06/30 12:22:56;;;;;;;6.20;4.78;;;;;;;;;;4926322;28;22993;-77
2021/06/30 12:25:24;;;;;;;6.47;4.95;;;;;;;;;;4931022;28;20064;-76
2021/06/30 12:28:03;;;;;;;7.88;5.43;;;;;;;;;;4930008;29;20063;-78
2021/06/30 12:30:31;;;;;;;6.38;5.45;;;;;;;;;;4929223;28;20070;-75
2021/06/30 12:32:58;;;;;;;8.23;5.97;;;;;;;;;;4928066;28;20726;-76
2021/06/30 12:35:29;;;;;;;8.52;5.53;;;;;;;;;;4928194;28;20550;-75
2021/06/30 12:37:59;;;;;;;5.80;4.75;;;;;;;;;;4922415;28;20474;-76
2021/06/30 12:40:26;;;;;;;7.25;4.65;;;;;;;;;;4927724;29;20063;-76
2021/06/30 12:42:52;;;;;;;7.43;4.85;;;;;;;;;;4932307;28;20079;-77
2021/06/30 12:45:20;;;;;;;6.40;4.75;;;;;;;;;;4926737;28;20059;-75
2021/06/30 12:47:51;;;;;;;8.43;5.63;;;;;;;;;;4925162;28;20130;-76
2021/06/30 12:50:17;;;;;;;5.87;4.77;;;;;;;;;;4931316;28;20492;-76
2021/06/30 12:52:44;;;;;;;6.70;4.97;;;;;;;;;;4925625;28;20142;-76
2021/06/30 12:55:12;;;;;;;6.68;4.88;;;;;;;;;;4942871;29;20063;-74
2021/06/30 12:57:57;;;;;;;6.18;5.18;;;;;;;;;;4926965;28;20483;-74
2021/06/30 13:00:24;;;;;;;7.82;5.70;;;;;;;;;;4928992;28;20556;-75
2021/06/30 13:03:09;;;;;;;6.88;5.93;;;;;;;;;;4925989;28;20126;-75
2021/06/30 13:05:36;;;;;;;7.18;5.97;;;;;;;;;;4926847;28;20424;-75
2021/06/30 13:08:03;;;;;;;8.40;5.93;;;;;;;;;;4927872;28;20075;-75
2021/06/30 13:10:29;;;;;;;7.60;5.03;;;;;;;;;;4926675;28;20075;-76
2021/06/30 13:13:08;;;;;;;8.25;5.40;;;;;;;;;;4929807;29;20067;-75
2021/06/30 13:15:35;;;;;;;5.70;5.15;;;;;;;;;;4919090;29;20115;-76
2021/06/30 13:18:17;;;;;;;7.32;5.63;;;;;;;;;;4923212;29;20468;-75
2021/06/30 13:20:43;;;;;;;6.57;4.97;;;;;;;;;;4923358;28;20130;-75
2021/06/30 13:23:11;;;;;;;8.70;5.40;;;;;;;;;;4928158;29;20850;-75
2021/06/30 13:25:47;;;;;;;6.75;5.13;;;;;;;;;;4923926;29;20071;-73
2021/06/30 13:28:30;;;;;;;6.32;5.22;;;;;;;;;;4925904;28;20087;-76
2021/06/30 13:36:30;;;;;;;6.93;5.07;;;;;;;;;;4928113;29;20202;-75
2021/06/30 13:38:56;;;;;;;7.00;5.40;;;;;;;;;;4923769;29;20071;-75
2021/06/30 13:41:23;;;;;;;7.05;5.07;;;;;;;;;;4927687;29;20870;-77
2021/06/30 13:43:50;;;;;;;6.35;5.63;;;;;;;;;;4926958;29;20067;-74
2021/06/30 13:46:21;;;;;;;6.25;5.32;;;;;;;;;;4924918;28;20059;-76
2021/06/30 13:48:47;;;;;;;6.30;5.20;;;;;;;;;;4926595;28;20059;-75
2021/06/30 13:51:15;;;;;;;6.15;5.10;;;;;;;;;;4946298;28;20040;-75
2021/06/30 13:53:43;;;;;;;6.50;5.38;;;;;;;;;;4924178;28;20055;-77
2021/06/30 13:56:11;;;;;;;6.40;4.80;;;;;;;;;;4925516;28;20436;-75
2021/06/30 13:58:40;;;;;;;5.97;5.22;;;;;;;;;;4941316;28;20067;-76
2021/06/30 14:01:06;;;;;;;5.80;5.05;;;;;;;;;;4926575;28;20122;-75
2021/06/30 14:03:33;;;;;;;5.35;4.85;;;;;;;;;;4929950;28;20067;-76
2021/06/30 14:06:00;;;;;;;7.70;4.85;;;;;;;;;;4928162;29;20064;-75
2021/06/30 14:08:26;;;;;;;5.97;5.15;;;;;;;;;;4927043;29;20075;-75
2021/06/30 14:10:55;;;;;;;6.53;5.30;;;;;;;;;;4928135;29;20107;-76
2021/06/30 14:13:22;;;;;;;5.78;5.15;;;;;;;;;;4926393;29;20618;-75
2021/06/30 14:15:48;;;;;;;7.13;5.53;;;;;;;;;;4923440;29;20048;-75
2021/06/30 14:18:15;;;;;;;8.32;6.10;;;;;;;;;;4928113;28;20071;-76
2021/06/30 14:20:42;;;;;;;7.70;5.95;;;;;;;;;;4926289;29;20071;-75
2021/06/30 14:23:10;;;;;;;6.35;5.50;;;;;;;;;;4933278;28;20115;-76
2021/06/30 14:25:37;;;;;;;6.00;5.38;;;;;;;;;;4928604;28;20134;-76
2021/06/30 14:28:04;;;;;;;7.32;5.78;;;;;;;;;;4931339;28;20056;-75
2021/06/30 14:30:31;;;;;;;6.20;5.60;;;;;;;;;;4927585;29;20451;-76
2021/06/30 14:32:57;;;;;;;7.25;6.05;;;;;;;;;;4930446;28;20067;-76
2021/06/30 14:35:24;;;;;;;6.70;5.68;;;;;;;;;;4930021;29;20059;-74
2021/06/30 14:37:51;;;;;;;6.05;5.45;;;;;;;;;;4930704;28;20063;-75
2021/06/30 14:40:18;;;;;;;7.28;5.63;;;;;;;;;;4931934;28;20102;-75
2021/06/30 14:42:45;;;;;;;6.85;5.30;;;;;;;;;;4926073;29;20083;-75
2021/06/30 14:45:12;;;;;;;6.55;5.32;;;;;;;;;;4933308;28;20531;-76
2021/06/30 14:47:38;;;;;;;6.40;5.55;;;;;;;;;;4930132;28;20063;-76
2021/06/30 14:50:06;;;;;;;7.72;4.90;;;;;;;;;;4931763;28;20063;-76
2021/06/30 14:52:32;;;;;;;6.53;5.20;;;;;;;;;;4931818;29;20940;-75
2021/06/30 14:54:59;;;;;;;6.75;4.85;;;;;;;;;;4934097;29;20051;-76
2021/06/30 14:57:25;;;;;;;6.85;5.15;;;;;;;;;;4945555;28;20071;-75
2021/06/30 14:59:52;;;;;;;5.68;5.03;;;;;;;;;;4931506;28;20508;-77